Orienta, Oklahoma
Current Conditions -  °F | °C
As of 7:35 PM on Wednesday 26 Nov 2014 (Local Time) from KJWG Reporting Station
Clear Clear  
Wind Chill: 32°   Ceiling: Unl
Heat Index: 39°   Visibility: 10mi
Dew Point: 26°   Wind: 10mph
Humidity: 59%   Direction: 10°N
Pressure: 30.36"   Gusts: NA
Location:  36.2837°N, 98.6091°W
Report Text: KJWG 270135Z AUTO 01009KT 10SM CLR 04/M04 A3036 RMK AO2 T00371036
Loading
Personal Weather Stations






























Interactive Weather Map New forecast layout! Learn more

10-Day Weather Forecast

Advertisements
Track Severe Weather on mobile